Etusivu
METAR-TAF:

METAR-TAF

Lentoasemat :

Gobabis, Namibia

Leveyspiiri: 22-30-20S, Pituuspiiri: 18-58-30E, korkeus merenpinnasta: 1468 m

Tämänhetkinen sää

Tämä raportti tehtiin 1 tunti ja 5 minuuttia sitten, kello 00.00 UTC
Tuuli 5 kn pohjoisesta/koillisesta
Lämpötila 25°C
Kosteus 41%
Ilmanpaine 1023 hPa

METAR: FYGB 200000Z AUTO 03005KT //// // ////// 25/11 Q1023

Aika: 03:05 (01:05 UTC)


TAF: puuttuu

Säähavainnot ja -ennusteet yli 4000 lentoasemalta (METAR- ja TAF-raportit).

Käytössä olevat sääasemat on merkitty karttaan keltaisilla ja punaisilla pisteillä.

Aseta hiiri pisteen päälle nähdäksesi sääaseman nimen.

Klikkaa sitten nähdäksesi säähavainnot ja -ennusteet.

Kartan vaihtaminen: klikkaa mustalla rastilla varustettuja vihreitä pisteitä, niin voit zoomata sisään; viivalla varustettua vihreää pistettä, niin voit zoomata ulos tai vihreitä nuolia, niin pääset viereisille kartoille.


METAR-TAF: